Time;durP1;ratioP1;P1;durP2;ratioP2;P2;SDS_P1;SDS_P2;PMS_P1;PMS_P2;Temp;Humidity;BMP_temperature;BMP_pressure;BME280_temperature;BME280_humidity;BME280_pressure;Samples;Min_cycle;Max_cycle;Signal;HPM_P1;HPM_P2
2023/06/15 00:02:03;;;;;;;;;13.75;12.75;;;;;28.95;33.39;101509.25;5075053;27;45394;-68
2023/06/15 00:04:29;;;;;;;;;12.75;12.25;;;;;28.96;33.21;101512.78;5075475;27;46937;-68
2023/06/15 00:06:54;;;;;;;;;14.50;13.50;;;;;28.95;33.63;101506.59;5075517;28;45545;-68
2023/06/15 00:09:20;;;;;;;;;14.50;12.25;;;;;28.96;32.98;101518.13;5075298;28;45372;-68
2023/06/15 00:11:45;;;;;;;;;13.67;12.67;;;;;28.97;33.65;101509.03;5075611;27;45355;-68
2023/06/15 00:14:10;;;;;;;;;12.00;12.00;;;;;28.98;33.17;101508.00;5075402;28;46344;-69
2023/06/15 00:16:41;;;;;;;;;14.75;13.25;;;;;28.99;33.29;101512.31;5075179;28;45442;-68
2023/06/15 00:19:07;;;;;;;;;14.50;13.00;;;;;29.00;33.39;101519.34;5075445;28;45477;-68
2023/06/15 00:21:33;;;;;;;;;13.00;12.67;;;;;29.01;33.46;101517.50;5075247;28;45359;-69
2023/06/15 00:23:59;;;;;;;;;15.00;13.25;;;;;29.00;33.77;101508.63;5074749;28;46970;-68
2023/06/15 00:26:26;;;;;;;;;9.67;9.67;;;;;29.01;33.12;101509.44;5075084;28;45347;-68
2023/06/15 00:28:51;;;;;;;;;12.00;12.00;;;;;29.02;33.66;101508.41;5075547;28;45466;-69
2023/06/15 00:31:16;;;;;;;;;13.33;11.67;;;;;29.02;33.59;101511.91;5075155;28;45370;-69
2023/06/15 00:33:42;;;;;;;;;10.75;10.00;;;;;29.03;33.51;101508.19;5075179;28;46081;-69
2023/06/15 00:36:11;;;;;;;;;11.67;11.67;;;;;29.04;33.52;101506.34;5075237;28;45367;-68
2023/06/15 00:38:37;;;;;;;;;11.67;11.67;;;;;29.02;33.65;101511.91;5074910;27;45421;-68
2023/06/15 00:41:02;;;;;;;;;16.25;14.00;;;;;29.05;33.65;101510.66;5074960;28;45417;-68
2023/06/15 00:43:27;;;;;;;;;11.00;9.67;;;;;29.05;33.84;101516.00;5075090;27;46968;-68
2023/06/15 00:45:53;;;;;;;;;12.33;11.67;;;;;29.04;33.71;101509.03;5074965;28;45303;-68
2023/06/15 00:48:19;;;;;;;;;11.33;10.33;;;;;29.04;33.29;101512.50;5075393;28;45474;-68
2023/06/15 00:50:45;;;;;;;;;11.33;11.33;;;;;29.03;33.69;101516.25;5078445;27;45341;-68
2023/06/15 00:53:11;;;;;;;;;13.00;11.67;;;;;29.03;33.56;101521.59;5077968;28;45441;-68
2023/06/15 00:55:38;;;;;;;;;12.00;12.00;;;;;29.06;33.77;101520.34;5078422;28;45423;-68
2023/06/15 00:58:04;;;;;;;;;14.00;13.25;;;;;29.07;33.23;101521.97;5078217;28;45436;-68
2023/06/15 01:00:32;;;;;;;;;13.50;12.25;;;;;29.06;33.64;101523.84;5076816;28;45632;-68
2023/06/15 01:02:59;;;;;;;;;11.33;11.00;;;;;29.07;34.02;101522.81;5078235;28;45479;-68
2023/06/15 01:05:25;;;;;;;;;12.00;10.33;;;;;29.07;33.73;101519.28;5078022;28;45248;-69
2023/06/15 01:07:52;;;;;;;;;13.33;12.00;;;;;29.05;33.61;101516.84;5077879;28;45702;-68
2023/06/15 01:10:21;;;;;;;;;16.00;12.25;;;;;29.06;33.92;101523.03;5078122;28;45268;-68
2023/06/15 01:12:50;;;;;;;;;15.00;12.00;;;;;29.08;33.90;101529.00;5077885;28;46523;-69
2023/06/15 01:15:16;;;;;;;;;13.00;11.67;;;;;29.06;33.90;101525.72;5077820;28;45375;-69
2023/06/15 01:17:46;;;;;;;;;13.00;10.75;;;;;29.07;33.88;101527.34;5078150;28;45389;-68
2023/06/15 01:20:21;;;;;;;;;12.67;11.33;;;;;29.07;33.90;101525.47;5078096;27;45448;-68
2023/06/15 01:23:05;;;;;;;;;11.00;10.67;;;;;29.07;33.95;101528.16;5077471;27;46085;-68
2023/06/15 01:25:37;;;;;;;;;11.33;11.33;;;;;29.07;33.87;101525.47;5077862;27;45379;-69
2023/06/15 01:28:05;;;;;;;;;14.00;12.75;;;;;29.07;34.07;101525.47;5077898;28;45520;-68
2023/06/15 01:30:42;;;;;;;;;12.00;11.33;;;;;29.09;33.58;101530.69;5077668;28;45499;-68
2023/06/15 01:33:07;;;;;;;;;13.00;13.00;;;;;29.08;33.94;101526.31;5077529;27;46345;-69
2023/06/15 01:35:33;;;;;;;;;12.00;11.50;;;;;29.09;33.87;101527.13;5077603;28;45353;-68
2023/06/15 01:37:58;;;;;;;;;10.33;10.33;;;;;29.07;33.46;101521.97;5077624;28;45478;-68
2023/06/15 01:40:23;;;;;;;;;14.00;14.00;;;;;29.08;34.09;101520.94;5077510;27;45295;-69
2023/06/15 01:42:51;;;;;;;;;15.25;12.50;;;;;29.10;33.96;101526.13;5077597;28;45346;-69
2023/06/15 01:45:18;;;;;;;;;12.75;10.50;;;;;29.09;34.04;101517.28;5077568;28;45354;-68
2023/06/15 01:47:47;;;;;;;;;12.33;11.00;;;;;29.10;34.34;101528.81;5077532;28;45497;-68
2023/06/15 01:50:13;;;;;;;;;12.00;11.67;;;;;29.09;34.19;101516.44;5076903;28;45347;-68
2023/06/15 01:52:39;;;;;;;;;12.00;12.00;;;;;29.07;34.19;101520.13;5077239;28;46298;-69
2023/06/15 01:55:04;;;;;;;;;11.25;11.25;;;;;29.11;34.52;101522.41;5077536;28;45368;-69
2023/06/15 01:57:35;;;;;;;;;12.67;12.67;;;;;29.10;34.08;101518.91;5077512;28;45328;-69
2023/06/15 02:00:01;;;;;;;;;12.25;12.25;;;;;29.11;33.83;101522.41;5077141;27;45449;-68
2023/06/15 02:02:27;;;;;;;;;13.00;12.33;;;;;29.10;34.00;101526.94;5077004;28;45370;-68
2023/06/15 02:04:52;;;;;;;;;11.00;10.33;;;;;29.10;34.42;101524.28;5076870;28;45299;-68
2023/06/15 02:07:17;;;;;;;;;11.67;11.67;;;;;29.11;34.16;101525.09;5077269;28;45296;-68
2023/06/15 02:09:42;;;;;;;;;15.00;12.75;;;;;29.12;34.12;101526.75;5076894;28;50556;-69
2023/06/15 02:12:08;;;;;;;;;13.25;11.25;;;;;29.11;34.59;101525.09;5076994;28;45376;-69
2023/06/15 02:14:34;;;;;;;;;14.50;10.50;;;;;29.11;33.78;101523.25;5077083;28;45328;-68
2023/06/15 02:16:59;;;;;;;;;14.33;13.00;;;;;29.05;34.12;101516.84;5076692;27;49979;-68
2023/06/15 02:19:27;;;;;;;;;11.25;11.25;;;;;29.12;34.35;101526.75;5076747;28;45382;-69
2023/06/15 02:21:53;;;;;;;;;11.00;9.67;;;;;29.13;34.42;101528.38;5076834;27;45439;-69
2023/06/15 02:24:18;;;;;;;;;12.25;10.25;;;;;29.13;33.85;101528.38;5076800;28;45386;-68
2023/06/15 02:26:44;;;;;;;;;11.33;11.33;;;;;29.12;34.26;101527.56;5077298;27;45278;-69
2023/06/15 02:29:09;;;;;;;;;11.75;10.25;;;;;29.13;34.02;101525.69;5077034;28;45327;-68
2023/06/15 02:31:36;;;;;;;;;13.33;12.00;;;;;29.13;34.23;101534.56;5092473;27;47352;-68
2023/06/15 02:34:01;;;;;;;;;10.00;10.00;;;;;29.13;34.23;101523.03;5076521;28;45461;-68
2023/06/15 02:36:28;;;;;;;;;11.67;11.00;;;;;29.11;34.17;101531.28;5076662;28;45411;-68
2023/06/15 02:38:53;;;;;;;;;11.67;11.67;;;;;29.11;34.22;101528.59;5076715;27;45244;-68
2023/06/15 02:41:19;;;;;;;;;12.67;11.00;;;;;29.13;34.61;101533.75;5076501;28;45989;-69
2023/06/15 02:43:44;;;;;;;;;11.00;11.00;;;;;29.13;34.16;101525.69;5076756;28;45643;-69
2023/06/15 02:46:09;;;;;;;;;11.50;10.75;;;;;29.14;34.64;101528.19;5076780;28;45412;-69
2023/06/15 02:48:35;;;;;;;;;10.00;10.00;;;;;29.14;34.14;101522.81;5075096;28;45275;-68
2023/06/15 02:51:01;;;;;;;;;14.25;12.00;;;;;29.14;34.25;101522.00;5076475;27;45873;-69
2023/06/15 02:53:26;;;;;;;;;13.67;12.67;;;;;29.14;34.01;101520.16;5076484;28;45319;-68
2023/06/15 02:55:54;;;;;;;;;12.33;12.33;;;;;29.13;34.20;101512.31;5076712;28;45326;-68
2023/06/15 02:58:20;;;;;;;;;12.00;12.00;;;;;29.15;34.35;101519.09;5076592;28;45437;-68
2023/06/15 03:00:51;;;;;;;;;13.50;13.00;;;;;29.13;34.03;101510.47;5074773;28;46006;-68
2023/06/15 03:03:22;;;;;;;;;13.50;12.25;;;;;29.13;34.23;101517.66;5076121;27;45449;-69
2023/06/15 03:05:48;;;;;;;;;10.00;10.00;;;;;29.15;34.69;101516.41;5076289;28;45406;-69
2023/06/15 03:08:15;;;;;;;;;11.00;11.00;;;;;29.15;34.51;101515.59;5076358;28;45433;-68
2023/06/15 03:10:40;;;;;;;;;13.25;10.00;;;;;29.14;34.55;101527.34;5075310;27;45465;-68
2023/06/15 03:13:06;;;;;;;;;12.00;10.67;;;;;29.15;34.60;101523.63;5076068;28;45366;-68
2023/06/15 03:15:31;;;;;;;;;12.25;11.25;;;;;29.15;34.04;101528.97;5076148;28;45292;-69
2023/06/15 03:17:57;;;;;;;;;9.33;9.33;;;;;29.14;34.62;101527.34;5075976;28;45369;-68
2023/06/15 03:20:22;;;;;;;;;12.33;10.00;;;;;29.14;34.53;101527.34;5076108;28;45351;-68
2023/06/15 03:22:48;;;;;;;;;10.67;10.67;;;;;29.15;34.41;101523.63;5091982;27;45660;-69
2023/06/15 03:25:13;;;;;;;;;11.67;11.00;;;;;29.14;34.57;101535.41;5076477;27;45357;-68
2023/06/15 03:27:40;;;;;;;;;12.50;12.50;;;;;29.11;34.48;101525.09;5076092;28;45290;-68
2023/06/15 03:30:10;;;;;;;;;13.00;13.00;;;;;29.14;34.33;101535.41;5075992;28;47186;-69
2023/06/15 03:32:37;;;;;;;;;5.33;5.00;;;;;29.12;34.20;101535.59;5075396;28;45339;-68
2023/06/15 03:35:03;;;;;;;;;12.00;11.00;;;;;29.14;34.20;101536.22;5076425;27;45414;-68
2023/06/15 03:37:28;;;;;;;;;12.00;10.33;;;;;29.12;34.38;101524.88;5075929;28;45425;-68
2023/06/15 03:39:53;;;;;;;;;12.67;11.67;;;;;29.11;34.44;101531.28;5075610;27;46025;-69
2023/06/15 03:42:19;;;;;;;;;10.75;8.50;;;;;29.13;34.41;101536.41;5075983;27;45340;-69
2023/06/15 03:44:44;;;;;;;;;13.67;12.00;;;;;29.14;34.33;101535.41;5075960;27;45308;-68
2023/06/15 03:47:10;;;;;;;;;10.25;10.25;;;;;29.13;34.46;101539.94;5075461;27;45544;-68
2023/06/15 03:49:35;;;;;;;;;14.67;13.00;;;;;29.13;34.88;101534.56;5075716;27;46217;-69
2023/06/15 03:52:00;;;;;;;;;11.00;11.00;;;;;29.14;34.72;101532.72;5075734;28;45381;-68
2023/06/15 03:54:26;;;;;;;;;10.67;10.67;;;;;29.13;34.62;101531.88;5076019;27;45369;-68
2023/06/15 03:56:51;;;;;;;;;12.33;10.00;;;;;29.13;34.07;101534.56;5075768;28;45541;-69
2023/06/15 03:59:16;;;;;;;;;12.75;11.50;;;;;29.14;34.51;101527.34;5075617;28;45352;-68
2023/06/15 04:01:43;;;;;;;;;11.33;11.00;;;;;29.13;34.41;101531.88;5075083;27;45380;-68
2023/06/15 04:04:08;;;;;;;;;12.33;10.33;;;;;29.13;34.89;101537.25;5075805;28;45449;-68
2023/06/15 04:06:35;;;;;;;;;10.33;10.00;;;;;29.11;34.56;101538.50;5075432;28;45411;-68
2023/06/15 04:09:01;;;;;;;;;11.00;11.00;;;;;29.12;34.41;101538.28;5075420;28;47017;-68
2023/06/15 04:11:27;;;;;;;;;10.33;10.33;;;;;29.12;34.38;101543.63;5075346;28;45186;-68
2023/06/15 04:13:52;;;;;;;;;9.33;9.33;;;;;29.12;34.59;101537.47;5075581;28;45370;-68
2023/06/15 04:16:18;;;;;;;;;10.25;10.25;;;;;29.10;34.78;101536.84;5074946;28;45502;-68
2023/06/15 04:18:43;;;;;;;;;11.33;11.33;;;;;29.13;34.31;101537.25;5075325;28;46239;-69
2023/06/15 04:21:08;;;;;;;;;8.33;8.33;;;;;29.13;34.54;101547.13;5075315;27;45279;-68
2023/06/15 04:23:34;;;;;;;;;13.33;10.33;;;;;29.15;34.67;101550.41;5078947;28;45276;-68
2023/06/15 04:26:00;;;;;;;;;10.33;9.00;;;;;29.15;34.34;101548.56;5078906;28;45378;-68
2023/06/15 04:28:26;;;;;;;;;10.00;10.00;;;;;29.17;34.54;101548.38;5078671;28;47150;-68
2023/06/15 04:31:12;;;;;;;;;11.00;11.00;;;;;29.15;34.34;101543.22;5078561;28;45459;-68
2023/06/15 04:33:42;;;;;;;;;8.33;8.33;;;;;29.13;34.40;101541.78;5078957;27;45441;-68
2023/06/15 04:36:12;;;;;;;;;10.00;9.67;;;;;29.16;34.65;101544.88;5078732;27;45540;-68
2023/06/15 04:38:46;;;;;;;;;12.67;10.33;;;;;29.17;34.60;101548.38;5078287;27;46250;-69
2023/06/15 04:41:14;;;;;;;;;11.00;11.00;;;;;29.17;34.52;101551.84;5078474;27;45416;-68
2023/06/15 04:43:39;;;;;;;;;12.33;10.00;;;;;29.18;34.12;101555.34;5078680;27;45319;-69
2023/06/15 04:46:05;;;;;;;;;10.00;10.00;;;;;29.17;34.46;101562.56;5078041;27;45452;-68
2023/06/15 04:48:32;;;;;;;;;11.00;9.67;;;;;29.20;34.37;101560.53;5078298;27;46139;-68
2023/06/15 04:50:57;;;;;;;;;9.67;9.67;;;;;29.20;34.58;101555.97;5078354;27;45420;-68
2023/06/15 04:53:23;;;;;;;;;9.00;9.00;;;;;29.20;34.64;101563.19;5078610;28;45424;-69
2023/06/15 04:55:49;;;;;;;;;12.67;10.00;;;;;29.09;31.90;101565.50;5078540;28;45369;-68
2023/06/15 04:58:14;;;;;;;;;10.33;10.00;;;;;28.86;31.42;101566.75;5078149;28;46076;-69
2023/06/15 05:00:41;;;;;;;;;12.33;11.33;;;;;28.60;31.88;101577.31;5077934;28;45311;-69
2023/06/15 05:03:06;;;;;;;;;11.33;10.00;;;;;28.39;31.48;101573.00;5078477;28;45360;-69
2023/06/15 05:05:32;;;;;;;;;11.00;11.00;;;;;28.20;31.51;101580.81;5093973;27;45334;-69
2023/06/15 05:07:57;;;;;;;;;11.33;10.33;;;;;27.91;31.69;101572.94;5078163;28;46181;-69
2023/06/15 05:10:23;;;;;;;;;14.00;12.25;;;;;27.79;32.11;101578.00;5078201;27;45777;-68
2023/06/15 05:12:48;;;;;;;;;11.00;9.67;;;;;27.66;31.94;101578.84;5078389;28;45328;-69
2023/06/15 05:15:14;;;;;;;;;13.50;11.75;;;;;27.49;32.58;101579.19;5077560;28;45353;-69
2023/06/15 05:17:40;;;;;;;;;13.25;10.25;;;;;27.45;32.78;101585.13;5077859;27;45380;-69
2023/06/15 05:20:05;;;;;;;;;11.25;9.25;;;;;27.35;32.41;101583.63;5077379;27;45929;-70
2023/06/15 05:22:31;;;;;;;;;12.25;10.75;;;;;27.32;33.09;101585.91;5078035;27;45292;-69
2023/06/15 05:24:57;;;;;;;;;10.50;9.75;;;;;27.28;33.07;101591.63;5078087;27;45349;-70
2023/06/15 05:27:22;;;;;;;;;10.25;10.25;;;;;27.23;32.89;101590.56;5077230;27;46537;-68
2023/06/15 05:29:47;;;;;;;;;8.33;8.00;;;;;27.28;33.22;101591.63;5077067;27;45342;-68
2023/06/15 05:32:13;;;;;;;;;11.75;9.75;;;;;27.38;33.11;101596.59;5077641;27;45481;-68
2023/06/15 05:34:38;;;;;;;;;10.25;10.00;;;;;27.51;33.13;101600.34;5077361;27;45299;-68
2023/06/15 05:37:04;;;;;;;;;9.33;9.33;;;;;27.63;33.38;101595.25;5077501;27;46000;-68
2023/06/15 05:39:29;;;;;;;;;11.67;11.00;;;;;27.74;33.57;101594.66;5077452;27;45507;-68
2023/06/15 05:41:55;;;;;;;;;14.00;11.00;;;;;27.87;33.29;101597.63;5077829;27;45258;-68
2023/06/15 05:44:20;;;;;;;;;12.33;9.67;;;;;27.96;33.79;101599.91;5077512;28;45271;-68
2023/06/15 05:46:46;;;;;;;;;11.00;11.00;;;;;28.06;33.83;101598.66;5077520;27;46081;-68
2023/06/15 05:49:11;;;;;;;;;11.00;11.00;;;;;28.14;33.60;101601.16;5077271;28;45336;-68
2023/06/15 05:51:37;;;;;;;;;11.75;10.75;;;;;28.22;33.71;101599.31;5077514;28;45363;-68
2023/06/15 05:54:02;;;;;;;;;10.67;10.33;;;;;28.29;33.62;101597.47;5077381;27;46613;-68
2023/06/15 05:56:27;;;;;;;;;10.25;10.00;;;;;28.34;33.81;101597.66;5077370;28;45330;-68
2023/06/15 05:58:53;;;;;;;;;12.50;11.00;;;;;28.42;33.35;101604.66;5077183;28;45321;-68
2023/06/15 06:01:19;;;;;;;;;12.67;11.00;;;;;28.48;34.20;101609.25;5077221;28;45443;-68
2023/06/15 06:03:44;;;;;;;;;13.00;12.75;;;;;28.52;33.78;101602.44;5077497;27;45357;-71
2023/06/15 06:06:10;;;;;;;;;13.75;10.00;;;;;28.57;33.54;101604.50;5077023;27;45999;-70
2023/06/15 06:08:35;;;;;;;;;10.75;10.00;;;;;28.62;32.98;101606.56;5077204;28;45324;-68
2023/06/15 06:11:03;;;;;;;;;12.25;12.25;;;;;28.52;32.39;101605.09;5077233;27;45291;-68
2023/06/15 06:13:29;;;;;;;;;11.67;10.67;;;;;28.35;32.02;101595.81;5076793;27;45368;-68
2023/06/15 06:15:54;;;;;;;;;12.00;11.67;;;;;28.18;32.51;101599.72;5076761;27;46280;-67
2023/06/15 06:18:20;;;;;;;;;11.00;11.00;;;;;28.01;31.85;101606.47;5077247;27;45389;-67
2023/06/15 06:20:45;;;;;;;;;12.33;11.00;;;;;27.85;32.06;101604.00;5077110;27;45429;-67
2023/06/15 06:23:11;;;;;;;;;12.50;11.75;;;;;27.77;32.18;101600.63;5077085;28;45317;-67
2023/06/15 06:25:36;;;;;;;;;11.25;9.00;;;;;27.69;32.93;101617.69;5076918;28;46056;-66
2023/06/15 06:28:01;;;;;;;;;15.00;12.50;;;;;27.61;33.03;101616.03;5076677;28;45427;-66
2023/06/15 06:30:27;;;;;;;;;12.75;10.00;;;;;27.55;32.56;101611.47;5077219;28;45491;-66
2023/06/15 06:32:52;;;;;;;;;9.00;8.33;;;;;27.52;33.16;101615.38;5077021;28;45399;-66
2023/06/15 06:35:17;;;;;;;;;15.25;13.00;;;;;27.51;33.37;101611.88;5076806;27;46211;-67
2023/06/15 06:37:43;;;;;;;;;9.00;9.00;;;;;27.49;33.01;101611.25;5076665;28;50238;-66
2023/06/15 06:40:08;;;;;;;;;10.75;10.50;;;;;27.53;33.13;101611.69;5076618;27;45420;-67
2023/06/15 06:42:34;;;;;;;;;14.33;11.33;;;;;27.53;33.65;101617.03;5076493;27;45341;-66
2023/06/15 06:44:59;;;;;;;;;12.00;11.00;;;;;27.55;33.67;101611.47;5075763;27;46241;-66
2023/06/15 06:47:25;;;;;;;;;12.25;11.50;;;;;27.58;33.31;101616.44;5076318;28;45345;-67
2023/06/15 06:49:52;;;;;;;;;13.67;10.33;;;;;27.61;32.94;101622.19;5076539;27;45453;-67
2023/06/15 06:52:17;;;;;;;;;10.67;10.67;;;;;27.65;33.04;101614.59;5076801;28;45395;-68
2023/06/15 06:54:42;;;;;;;;;13.67;10.00;;;;;27.68;32.70;101614.19;5075962;28;46107;-67
2023/06/15 06:57:08;;;;;;;;;14.00;11.00;;;;;27.74;32.57;101621.41;5076500;28;45258;-67
2023/06/15 06:59:33;;;;;;;;;10.50;9.50;;;;;27.77;32.78;101617.50;5076476;28;45355;-67
2023/06/15 07:01:58;;;;;;;;;11.00;11.00;;;;;27.84;32.81;101617.56;5072916;28;45505;-68
2023/06/15 07:04:24;;;;;;;;;10.50;10.50;;;;;27.86;32.35;101623.53;5075743;27;45244;-67
2023/06/15 07:06:49;;;;;;;;;12.33;11.00;;;;;27.87;32.22;101619.00;5075606;28;45347;-68
2023/06/15 07:09:15;;;;;;;;;7.67;7.67;;;;;27.91;32.37;101626.44;5066834;27;45383;-69
2023/06/15 07:11:40;;;;;;;;;9.00;8.00;;;;;27.95;32.98;101625.00;5065301;28;45439;-69
2023/06/15 07:14:05;;;;;;;;;8.33;8.00;;;;;27.99;32.80;101624.59;5069088;28;45857;-69
2023/06/15 07:16:31;;;;;;;;;12.67;12.00;;;;;28.03;33.39;101621.31;5067722;28;45284;-68
2023/06/15 07:18:57;;;;;;;;;12.00;9.00;;;;;28.09;33.43;101625.03;5076289;28;45323;-68
2023/06/15 07:21:23;;;;;;;;;9.00;8.33;;;;;28.16;33.03;101628.53;5076226;28;45255;-68
2023/06/15 07:23:48;;;;;;;;;10.00;10.00;;;;;28.23;33.01;101625.88;5075666;28;46267;-69
2023/06/15 07:26:13;;;;;;;;;8.33;7.00;;;;;28.29;33.33;101624.22;5075874;28;45322;-68
2023/06/15 07:28:39;;;;;;;;;9.00;9.00;;;;;28.36;32.77;101627.75;5076268;28;45425;-68
2023/06/15 07:31:04;;;;;;;;;11.67;9.67;;;;;28.40;32.92;101634.31;5076021;28;45421;-68
2023/06/15 07:33:29;;;;;;;;;13.25;11.50;;;;;28.46;33.25;101634.56;5075906;28;46134;-68
2023/06/15 07:35:55;;;;;;;;;11.00;9.75;;;;;28.50;33.29;101630.44;5075925;28;45540;-68
2023/06/15 07:38:20;;;;;;;;;12.00;11.00;;;;;28.54;33.55;101636.22;5075634;27;45347;-68
2023/06/15 07:40:45;;;;;;;;;10.00;9.00;;;;;28.56;33.61;101637.66;5076046;28;45337;-68
2023/06/15 07:43:11;;;;;;;;;10.00;10.00;;;;;28.61;33.27;101634.34;5075738;27;46847;-68
2023/06/15 07:45:36;;;;;;;;;9.00;9.00;;;;;28.65;33.57;101640.13;5075877;27;45483;-68
2023/06/15 07:48:03;;;;;;;;;10.67;10.00;;;;;28.67;33.34;101635.38;5075949;27;45432;-68
2023/06/15 07:50:28;;;;;;;;;8.00;8.00;;;;;28.70;33.49;101637.66;5075692;28;45432;-68
2023/06/15 07:52:54;;;;;;;;;12.00;9.33;;;;;28.73;33.49;101637.22;5075242;28;46098;-68
2023/06/15 07:55:20;;;;;;;;;13.33;9.00;;;;;28.76;33.50;101638.66;5075713;28;45299;-68
2023/06/15 07:57:45;;;;;;;;;12.50;11.50;;;;;28.78;33.76;101642.78;5078174;28;45232;-68
2023/06/15 08:00:11;;;;;;;;;10.50;10.50;;;;;28.81;33.55;101636.19;5079451;28;45405;-68
2023/06/15 08:02:37;;;;;;;;;12.00;10.75;;;;;28.83;33.34;101642.19;5079212;28;45399;-68
2023/06/15 08:05:02;;;;;;;;;12.67;11.67;;;;;28.84;33.21;101639.28;5079077;28;45424;-68
2023/06/15 08:07:28;;;;;;;;;8.33;8.33;;;;;28.87;33.08;101645.25;5078931;28;45303;-68
2023/06/15 08:09:54;;;;;;;;;9.00;9.00;;;;;28.88;33.41;101639.69;5079064;28;45490;-68
2023/06/15 08:12:20;;;;;;;;;11.00;10.25;;;;;28.90;33.42;101639.47;5078931;27;46310;-68
2023/06/15 08:14:45;;;;;;;;;10.75;10.75;;;;;28.92;33.14;101645.44;5078794;28;45424;-68
2023/06/15 08:17:11;;;;;;;;;12.00;10.25;;;;;28.94;33.31;101643.38;5079212;28;45563;-68
2023/06/15 08:19:36;;;;;;;;;11.25;10.25;;;;;28.96;33.54;101641.34;5079150;27;45406;-68
2023/06/15 08:22:02;;;;;;;;;9.67;9.00;;;;;28.98;33.09;101646.47;5077348;28;47413;-68
2023/06/15 08:24:28;;;;;;;;;8.67;8.67;;;;;28.98;33.52;101643.78;5078990;28;45272;-68
2023/06/15 08:26:54;;;;;;;;;9.33;9.33;;;;;28.99;33.78;101638.22;5078923;28;45277;-68
2023/06/15 08:29:20;;;;;;;;;9.67;9.00;;;;;29.01;33.37;101643.38;5078751;28;45350;-68
2023/06/15 08:31:46;;;;;;;;;9.75;9.75;;;;;29.03;33.64;101647.50;5078823;28;45409;-68
2023/06/15 08:34:11;;;;;;;;;10.00;8.00;;;;;29.04;33.93;101635.72;5078673;28;45280;-68
2023/06/15 08:36:37;;;;;;;;;12.00;9.67;;;;;29.05;33.64;101639.25;5078573;28;45346;-68
2023/06/15 08:39:03;;;;;;;;;10.00;10.00;;;;;29.05;34.09;101625.84;5078568;27;45425;-68
2023/06/15 08:41:29;;;;;;;;;11.33;10.33;;;;;29.06;33.56;101636.38;5094464;27;46181;-68
2023/06/15 08:43:55;;;;;;;;;11.67;8.67;;;;;29.06;33.35;101639.06;5078511;28;45412;-68
2023/06/15 08:46:23;;;;;;;;;10.33;8.67;;;;;29.07;33.88;101624.59;5078832;28;45440;-68
2023/06/15 08:48:51;;;;;;;;;11.00;8.00;;;;;29.09;34.17;101631.63;5078686;28;45328;-68
2023/06/15 08:51:17;;;;;;;;;8.33;8.33;;;;;29.11;33.61;101632.25;5077758;28;45456;-68
2023/06/15 08:53:45;;;;;;;;;11.00;10.67;;;;;29.11;33.89;101629.56;5078425;28;45322;-68
2023/06/15 08:56:13;;;;;;;;;10.67;9.33;;;;;29.11;33.92;101630.41;5078591;28;45461;-68
2023/06/15 08:58:40;;;;;;;;;9.67;9.67;;;;;29.13;34.23;101631.00;5078393;28;45402;-68
2023/06/15 09:01:06;;;;;;;;;11.33;9.67;;;;;29.10;33.65;101623.38;5078289;27;45453;-68
2023/06/15 09:03:33;;;;;;;;;12.00;10.33;;;;;29.13;33.96;101625.66;5078132;28;45465;-68
2023/06/15 09:06:00;;;;;;;;;9.33;9.33;;;;;29.14;33.85;101624.63;5078081;28;45426;-68
2023/06/15 09:08:25;;;;;;;;;9.33;9.00;;;;;29.14;33.81;101629.16;5077216;28;45386;-68
2023/06/15 09:10:51;;;;;;;;;10.33;9.33;;;;;29.16;33.84;101632.44;5077920;28;46103;-67
2023/06/15 09:13:16;;;;;;;;;9.33;9.33;;;;;29.17;33.73;101623.41;5078153;28;45466;-67
2023/06/15 09:15:43;;;;;;;;;9.00;7.67;;;;;29.18;33.68;101628.53;5078033;28;45439;-67
2023/06/15 09:18:13;;;;;;;;;11.33;9.00;;;;;29.17;33.52;101626.88;5078296;28;45360;-67
2023/06/15 09:20:38;;;;;;;;;12.00;10.67;;;;;29.18;33.85;101627.69;5076935;28;45433;-67
2023/06/15 09:23:09;;;;;;;;;9.33;8.00;;;;;29.17;33.93;101621.50;5077979;28;45450;-67
2023/06/15 09:25:36;;;;;;;;;8.00;8.00;;;;;29.20;33.79;101622.16;5078093;28;45306;-67
2023/06/15 09:28:06;;;;;;;;;10.67;10.00;;;;;29.21;33.85;101629.97;5077990;28;45281;-67
2023/06/15 09:30:34;;;;;;;;;11.75;8.25;;;;;29.22;33.43;101623.59;5077688;28;46128;-67
2023/06/15 09:33:09;;;;;;;;;10.00;8.67;;;;;29.23;34.10;101625.22;5077822;28;45320;-67
2023/06/15 09:35:35;;;;;;;;;11.00;11.00;;;;;29.24;34.28;101629.56;5077483;27;45282;-67
2023/06/15 09:38:01;;;;;;;;;10.25;9.50;;;;;29.23;34.24;101622.53;5077744;28;45205;-68
2023/06/15 09:40:28;;;;;;;;;11.75;11.75;;;;;29.25;33.49;101631.19;5076201;27;47079;-67
2023/06/15 09:42:56;;;;;;;;;11.00;9.00;;;;;29.26;33.82;101632.00;5077684;27;45799;-68
2023/06/15 09:45:21;;;;;;;;;8.67;8.00;;;;;29.27;33.80;101639.03;5077755;27;45435;-67
2023/06/15 09:47:54;;;;;;;;;10.67;8.67;;;;;29.28;34.17;101629.94;5077509;28;45424;-67
2023/06/15 09:50:27;;;;;;;;;9.00;9.00;;;;;29.27;33.85;101631.81;5077048;27;45462;-67
2023/06/15 09:52:52;;;;;;;;;11.67;9.00;;;;;29.27;33.52;101630.97;5077609;27;45418;-67
2023/06/15 09:55:18;;;;;;;;;11.75;11.50;;;;;29.27;33.85;101625.63;5077490;28;45310;-67
2023/06/15 09:57:44;;;;;;;;;10.00;10.00;;;;;29.28;34.17;101627.25;5077627;28;45508;-67
2023/06/15 10:00:12;;;;;;;;;10.67;9.00;;;;;29.30;33.66;101627.88;5077330;27;46398;-67
2023/06/15 10:02:39;;;;;;;;;11.00;9.00;;;;;29.31;34.02;101623.31;5077279;28;45406;-67
2023/06/15 10:05:14;;;;;;;;;8.67;8.67;;;;;29.32;33.77;101631.19;5077064;28;45338;-67
2023/06/15 10:07:46;;;;;;;;;8.33;7.00;;;;;29.32;33.96;101631.19;5077203;28;45522;-68
2023/06/15 10:10:14;;;;;;;;;9.67;9.67;;;;;29.33;33.71;101638.16;5077098;27;47131;-68
2023/06/15 10:12:43;;;;;;;;;8.33;8.00;;;;;29.33;34.24;101624.75;5077404;27;45369;-67
2023/06/15 10:15:14;;;;;;;;;10.00;9.33;;;;;29.33;33.80;101629.31;5077016;28;45343;-68
2023/06/15 10:17:46;;;;;;;;;9.00;9.00;;;;;29.34;33.84;101622.91;5077117;27;45307;-67
2023/06/15 10:20:17;;;;;;;;;9.67;9.33;;;;;29.34;33.65;101636.31;5076768;28;46289;-68
2023/06/15 10:23:04;;;;;;;;;10.33;9.33;;;;;29.34;34.12;101630.94;5077123;27;45401;-67
2023/06/15 10:25:32;;;;;;;;;9.00;9.00;;;;;29.33;33.83;101640.84;5077307;27;45337;-67
2023/06/15 10:27:59;;;;;;;;;10.00;9.00;;;;;29.34;33.80;101633.63;5076842;28;45224;-68
2023/06/15 10:30:43;;;;;;;;;9.00;7.00;;;;;29.33;33.92;101626.66;5076845;28;46396;-67
2023/06/15 10:33:29;;;;;;;;;13.00;9.33;;;;;29.34;33.78;101637.13;5076308;27;45232;-68
2023/06/15 10:36:10;;;;;;;;;10.00;10.00;;;;;29.34;33.89;101637.13;5076856;28;45337;-68
2023/06/15 10:38:35;;;;;;;;;8.33;8.00;;;;;29.36;33.78;101634.22;5076631;27;45382;-68
2023/06/15 10:41:03;;;;;;;;;9.67;9.00;;;;;29.33;33.97;101630.13;5076658;28;46073;-67
2023/06/15 10:43:28;;;;;;;;;9.33;8.33;;;;;29.36;34.17;101627.03;5076802;27;45302;-67
2023/06/15 10:45:55;;;;;;;;;8.00;8.00;;;;;29.36;33.69;101626.19;5076814;27;45302;-67
2023/06/15 10:48:26;;;;;;;;;9.00;9.00;;;;;29.37;34.16;101635.88;5076361;28;45481;-67
2023/06/15 10:50:52;;;;;;;;;8.00;8.00;;;;;29.37;33.60;101633.22;5076281;27;45300;-67
2023/06/15 10:53:25;;;;;;;;;6.33;6.33;;;;;29.38;34.08;101635.66;5076490;28;45943;-68
2023/06/15 10:55:54;;;;;;;;;10.33;10.33;;;;;29.37;34.11;101623.31;5076687;27;45317;-67
2023/06/15 10:58:19;;;;;;;;;9.00;9.00;;;;;29.38;34.17;101624.94;5076514;28;45307;-68
2023/06/15 11:01:03;;;;;;;;;9.00;9.00;;;;;29.38;33.58;101627.63;5076214;28;46228;-67
2023/06/15 11:03:32;;;;;;;;;8.67;7.67;;;;;29.38;33.85;101630.31;5075977;27;45371;-68
2023/06/15 11:06:02;;;;;;;;;8.33;8.33;;;;;29.39;34.01;101628.47;5075122;28;45351;-68
2023/06/15 11:08:32;;;;;;;;;8.67;8.67;;;;;29.39;33.81;101623.09;5074993;28;45463;-68
2023/06/15 11:10:58;;;;;;;;;11.00;9.33;;;;;29.37;34.11;101619.81;5076155;28;46207;-67
2023/06/15 11:13:25;;;;;;;;;12.33;10.00;;;;;29.39;33.73;101623.09;5076174;28;45380;-68